sensor_id;sensor_type;location;lat;lon;timestamp;temperature;humidity
11704;DHT22;5908;51.354;7.458;2023-04-23T00:00:33;12.60;99.90
11704;DHT22;5908;51.354;7.458;2023-04-23T00:03:05;12.50;99.90
11704;DHT22;5908;51.354;7.458;2023-04-23T00:05:35;12.50;99.90
11704;DHT22;5908;51.354;7.458;2023-04-23T00:08:02;12.40;99.90
11704;DHT22;5908;51.354;7.458;2023-04-23T00:10:30;12.40;99.90
11704;DHT22;5908;51.354;7.458;2023-04-23T00:12:57;12.40;99.90
11704;DHT22;5908;51.354;7.458;2023-04-23T00:15:25;12.30;99.90
11704;DHT22;5908;51.354;7.458;2023-04-23T00:17:52;12.30;99.90
11704;DHT22;5908;51.354;7.458;2023-04-23T00:20:19;12.30;99.90
11704;DHT22;5908;51.354;7.458;2023-04-23T00:22:46;12.30;99.90
11704;DHT22;5908;51.354;7.458;2023-04-23T00:25:13;12.20;99.90
11704;DHT22;5908;51.354;7.458;2023-04-23T00:27:41;12.20;99.90
11704;DHT22;5908;51.354;7.458;2023-04-23T00:30:08;12.20;99.90
11704;DHT22;5908;51.354;7.458;2023-04-23T00:32:35;12.20;99.90
11704;DHT22;5908;51.354;7.458;2023-04-23T00:35:01;12.20;99.90
11704;DHT22;5908;51.354;7.458;2023-04-23T00:37:28;12.20;99.90
11704;DHT22;5908;51.354;7.458;2023-04-23T00:39:55;12.20;99.90
11704;DHT22;5908;51.354;7.458;2023-04-23T00:42:22;12.20;99.90
11704;DHT22;5908;51.354;7.458;2023-04-23T00:44:50;12.20;99.90
11704;DHT22;5908;51.354;7.458;2023-04-23T00:47:17;12.20;99.90
11704;DHT22;5908;51.354;7.458;2023-04-23T00:49:45;12.20;99.90
11704;DHT22;5908;51.354;7.458;2023-04-23T00:52:11;12.20;99.90
11704;DHT22;5908;51.354;7.458;2023-04-23T00:54:38;12.20;99.90
11704;DHT22;5908;51.354;7.458;2023-04-23T00:57:05;12.10;99.90
11704;DHT22;5908;51.354;7.458;2023-04-23T00:59:32;12.20;99.90
11704;DHT22;5908;51.354;7.458;2023-04-23T01:02:01;12.20;99.90
11704;DHT22;5908;51.354;7.458;2023-04-23T01:04:30;12.10;99.90
11704;DHT22;5908;51.354;7.458;2023-04-23T01:06:58;12.10;99.90
11704;DHT22;5908;51.354;7.458;2023-04-23T01:09:26;12.10;99.90
11704;DHT22;5908;51.354;7.458;2023-04-23T01:11:53;12.10;99.90
11704;DHT22;5908;51.354;7.458;2023-04-23T01:14:19;12.10;99.90
11704;DHT22;5908;51.354;7.458;2023-04-23T01:16:46;12.00;99.90
11704;DHT22;5908;51.354;7.458;2023-04-23T01:19:15;12.00;99.90
11704;DHT22;5908;51.354;7.458;2023-04-23T01:21:42;12.00;99.90
11704;DHT22;5908;51.354;7.458;2023-04-23T01:24:11;12.00;99.90
11704;DHT22;5908;51.354;7.458;2023-04-23T01:26:38;12.00;99.90
11704;DHT22;5908;51.354;7.458;2023-04-23T01:29:06;12.00;99.90
11704;DHT22;5908;51.354;7.458;2023-04-23T01:31:33;12.00;99.90
11704;DHT22;5908;51.354;7.458;2023-04-23T01:34:00;11.90;99.90
11704;DHT22;5908;51.354;7.458;2023-04-23T01:36:27;12.00;99.90
11704;DHT22;5908;51.354;7.458;2023-04-23T01:38:54;11.90;99.90
11704;DHT22;5908;51.354;7.458;2023-04-23T01:41:22;11.90;99.90
11704;DHT22;5908;51.354;7.458;2023-04-23T01:43:48;11.90;99.90
11704;DHT22;5908;51.354;7.458;2023-04-23T01:46:15;11.80;99.90
11704;DHT22;5908;51.354;7.458;2023-04-23T01:48:42;11.80;99.90
11704;DHT22;5908;51.354;7.458;2023-04-23T01:51:09;11.80;99.90
11704;DHT22;5908;51.354;7.458;2023-04-23T01:53:36;11.80;99.90
11704;DHT22;5908;51.354;7.458;2023-04-23T01:56:02;11.70;99.90
11704;DHT22;5908;51.354;7.458;2023-04-23T01:58:31;11.70;99.90
11704;DHT22;5908;51.354;7.458;2023-04-23T02:00:58;11.80;99.90
11704;DHT22;5908;51.354;7.458;2023-04-23T02:03:25;11.70;99.90
11704;DHT22;5908;51.354;7.458;2023-04-23T02:05:53;11.70;99.90
11704;DHT22;5908;51.354;7.458;2023-04-23T02:08:20;11.70;99.90
11704;DHT22;5908;51.354;7.458;2023-04-23T02:10:47;11.70;99.90
11704;DHT22;5908;51.354;7.458;2023-04-23T02:13:14;11.70;99.90
11704;DHT22;5908;51.354;7.458;2023-04-23T02:15:42;11.60;99.90
11704;DHT22;5908;51.354;7.458;2023-04-23T02:18:08;11.50;99.90
11704;DHT22;5908;51.354;7.458;2023-04-23T02:20:36;11.50;99.90
11704;DHT22;5908;51.354;7.458;2023-04-23T02:23:05;11.30;99.90
11704;DHT22;5908;51.354;7.458;2023-04-23T02:25:32;11.20;99.90
11704;DHT22;5908;51.354;7.458;2023-04-23T02:27:59;11.20;99.90
11704;DHT22;5908;51.354;7.458;2023-04-23T02:30:29;11.10;99.90
11704;DHT22;5908;51.354;7.458;2023-04-23T02:32:57;11.00;99.90
11704;DHT22;5908;51.354;7.458;2023-04-23T02:35:24;11.00;99.90
11704;DHT22;5908;51.354;7.458;2023-04-23T02:37:51;10.90;99.90
11704;DHT22;5908;51.354;7.458;2023-04-23T02:40:18;10.90;99.90
11704;DHT22;5908;51.354;7.458;2023-04-23T02:42:45;10.90;99.90
11704;DHT22;5908;51.354;7.458;2023-04-23T02:45:12;10.80;99.90
11704;DHT22;5908;51.354;7.458;2023-04-23T02:47:38;10.80;99.90
11704;DHT22;5908;51.354;7.458;2023-04-23T02:50:07;10.70;99.90
11704;DHT22;5908;51.354;7.458;2023-04-23T02:52:34;10.70;99.90
11704;DHT22;5908;51.354;7.458;2023-04-23T02:55:01;10.70;99.90
11704;DHT22;5908;51.354;7.458;2023-04-23T02:57:28;10.70;99.90
11704;DHT22;5908;51.354;7.458;2023-04-23T02:59:55;10.60;99.90
11704;DHT22;5908;51.354;7.458;2023-04-23T03:02:22;10.60;99.90
11704;DHT22;5908;51.354;7.458;2023-04-23T03:04:48;10.70;99.90
11704;DHT22;5908;51.354;7.458;2023-04-23T03:07:17;10.70;99.90
11704;DHT22;5908;51.354;7.458;2023-04-23T03:09:43;10.80;99.90
11704;DHT22;5908;51.354;7.458;2023-04-23T03:12:10;11.00;99.90
11704;DHT22;5908;51.354;7.458;2023-04-23T03:14:37;11.00;99.90
11704;DHT22;5908;51.354;7.458;2023-04-23T03:17:03;11.20;99.90
11704;DHT22;5908;51.354;7.458;2023-04-23T03:19:30;11.10;99.90
11704;DHT22;5908;51.354;7.458;2023-04-23T03:21:57;11.00;99.90
11704;DHT22;5908;51.354;7.458;2023-04-23T03:24:25;10.90;99.90
11704;DHT22;5908;51.354;7.458;2023-04-23T03:26:52;10.80;99.90
11704;DHT22;5908;51.354;7.458;2023-04-23T03:29:19;10.80;99.90
11704;DHT22;5908;51.354;7.458;2023-04-23T03:31:45;10.80;99.90
11704;DHT22;5908;51.354;7.458;2023-04-23T03:34:12;10.90;99.90
11704;DHT22;5908;51.354;7.458;2023-04-23T03:36:39;10.90;99.90
11704;DHT22;5908;51.354;7.458;2023-04-23T03:39:06;10.90;99.90
11704;DHT22;5908;51.354;7.458;2023-04-23T03:41:34;10.90;99.90
11704;DHT22;5908;51.354;7.458;2023-04-23T03:44:01;10.80;99.90
11704;DHT22;5908;51.354;7.458;2023-04-23T03:46:27;10.80;99.90
11704;DHT22;5908;51.354;7.458;2023-04-23T03:48:54;10.80;99.90
11704;DHT22;5908;51.354;7.458;2023-04-23T03:51:21;10.80;99.90
11704;DHT22;5908;51.354;7.458;2023-04-23T03:53:48;10.80;99.90
11704;DHT22;5908;51.354;7.458;2023-04-23T03:56:14;10.80;99.90
11704;DHT22;5908;51.354;7.458;2023-04-23T03:58:43;10.80;99.90
11704;DHT22;5908;51.354;7.458;2023-04-23T04:01:09;10.80;99.90
11704;DHT22;5908;51.354;7.458;2023-04-23T04:03:36;10.90;99.90
11704;DHT22;5908;51.354;7.458;2023-04-23T04:06:03;10.90;99.90
11704;DHT22;5908;51.354;7.458;2023-04-23T04:08:30;10.90;99.90
11704;DHT22;5908;51.354;7.458;2023-04-23T04:10:57;11.00;99.90
11704;DHT22;5908;51.354;7.458;2023-04-23T04:13:24;11.00;99.90
11704;DHT22;5908;51.354;7.458;2023-04-23T04:15:52;11.00;99.90
11704;DHT22;5908;51.354;7.458;2023-04-23T04:18:19;11.10;99.90
11704;DHT22;5908;51.354;7.458;2023-04-23T04:20:46;11.20;99.90
11704;DHT22;5908;51.354;7.458;2023-04-23T04:23:12;11.30;99.90
11704;DHT22;5908;51.354;7.458;2023-04-23T04:25:39;11.40;99.90
11704;DHT22;5908;51.354;7.458;2023-04-23T04:28:06;11.50;99.90
11704;DHT22;5908;51.354;7.458;2023-04-23T04:30:33;11.50;99.90
11704;DHT22;5908;51.354;7.458;2023-04-23T04:33:02;11.60;99.90
11704;DHT22;5908;51.354;7.458;2023-04-23T04:35:29;11.60;99.90
11704;DHT22;5908;51.354;7.458;2023-04-23T04:37:55;11.60;99.90
11704;DHT22;5908;51.354;7.458;2023-04-23T04:40:23;11.70;99.90
11704;DHT22;5908;51.354;7.458;2023-04-23T04:42:51;11.50;99.90
11704;DHT22;5908;51.354;7.458;2023-04-23T04:45:17;11.50;99.90
11704;DHT22;5908;51.354;7.458;2023-04-23T04:47:44;11.50;99.90
11704;DHT22;5908;51.354;7.458;2023-04-23T04:50:12;11.50;99.90
11704;DHT22;5908;51.354;7.458;2023-04-23T04:52:39;11.60;99.90
11704;DHT22;5908;51.354;7.458;2023-04-23T04:55:06;11.40;99.90
11704;DHT22;5908;51.354;7.458;2023-04-23T04:57:33;11.30;99.90
11704;DHT22;5908;51.354;7.458;2023-04-23T05:00:05;11.20;99.90
11704;DHT22;5908;51.354;7.458;2023-04-23T05:02:44;11.10;99.90
11704;DHT22;5908;51.354;7.458;2023-04-23T05:05:12;11.00;99.90
11704;DHT22;5908;51.354;7.458;2023-04-23T05:07:39;11.00;99.90
11704;DHT22;5908;51.354;7.458;2023-04-23T05:10:06;11.00;99.90
11704;DHT22;5908;51.354;7.458;2023-04-23T05:12:33;11.10;99.90
11704;DHT22;5908;51.354;7.458;2023-04-23T05:15:01;11.20;99.90
11704;DHT22;5908;51.354;7.458;2023-04-23T05:17:29;11.20;99.90
11704;DHT22;5908;51.354;7.458;2023-04-23T05:19:55;11.30;99.90
11704;DHT22;5908;51.354;7.458;2023-04-23T05:22:24;11.40;99.90
11704;DHT22;5908;51.354;7.458;2023-04-23T05:24:51;11.50;99.90
11704;DHT22;5908;51.354;7.458;2023-04-23T05:27:18;11.60;99.90
11704;DHT22;5908;51.354;7.458;2023-04-23T05:29:45;11.70;99.90
11704;DHT22;5908;51.354;7.458;2023-04-23T05:32:12;11.70;99.90
11704;DHT22;5908;51.354;7.458;2023-04-23T05:34:38;11.80;99.90
11704;DHT22;5908;51.354;7.458;2023-04-23T05:37:05;11.90;99.90
11704;DHT22;5908;51.354;7.458;2023-04-23T05:39:33;12.00;99.90
11704;DHT22;5908;51.354;7.458;2023-04-23T05:42:00;12.20;99.90
11704;DHT22;5908;51.354;7.458;2023-04-23T05:44:27;12.50;99.90
11704;DHT22;5908;51.354;7.458;2023-04-23T05:46:54;12.80;99.90
11704;DHT22;5908;51.354;7.458;2023-04-23T05:49:22;13.20;99.90
11704;DHT22;5908;51.354;7.458;2023-04-23T05:51:49;13.70;99.90
11704;DHT22;5908;51.354;7.458;2023-04-23T05:54:16;14.00;99.90
11704;DHT22;5908;51.354;7.458;2023-04-23T05:56:44;14.20;99.90
11704;DHT22;5908;51.354;7.458;2023-04-23T05:59:11;14.30;99.90
11704;DHT22;5908;51.354;7.458;2023-04-23T06:01:38;14.20;99.90
11704;DHT22;5908;51.354;7.458;2023-04-23T06:04:06;14.30;99.90
11704;DHT22;5908;51.354;7.458;2023-04-23T06:06:32;14.40;99.90
11704;DHT22;5908;51.354;7.458;2023-04-23T06:08:59;14.50;99.90
11704;DHT22;5908;51.354;7.458;2023-04-23T06:11:26;14.60;99.90
11704;DHT22;5908;51.354;7.458;2023-04-23T06:13:54;14.80;99.90
11704;DHT22;5908;51.354;7.458;2023-04-23T06:16:21;14.90;99.90
11704;DHT22;5908;51.354;7.458;2023-04-23T06:18:48;14.90;99.90
11704;DHT22;5908;51.354;7.458;2023-04-23T06:21:15;14.90;99.90
11704;DHT22;5908;51.354;7.458;2023-04-23T06:23:42;15.00;99.90
11704;DHT22;5908;51.354;7.458;2023-04-23T06:28:45;15.30;99.90
11704;DHT22;5908;51.354;7.458;2023-04-23T06:31:13;15.50;99.90
11704;DHT22;5908;51.354;7.458;2023-04-23T06:33:40;15.60;99.90
11704;DHT22;5908;51.354;7.458;2023-04-23T06:36:07;15.70;99.90
11704;DHT22;5908;51.354;7.458;2023-04-23T06:38:35;15.70;99.90
11704;DHT22;5908;51.354;7.458;2023-04-23T06:41:02;15.80;99.90
11704;DHT22;5908;51.354;7.458;2023-04-23T06:43:29;15.80;99.90
11704;DHT22;5908;51.354;7.458;2023-04-23T06:45:56;15.90;99.90
11704;DHT22;5908;51.354;7.458;2023-04-23T06:48:24;16.10;99.90
11704;DHT22;5908;51.354;7.458;2023-04-23T06:50:51;16.30;99.90
11704;DHT22;5908;51.354;7.458;2023-04-23T06:53:18;16.40;99.90
11704;DHT22;5908;51.354;7.458;2023-04-23T06:55:45;16.60;99.90
11704;DHT22;5908;51.354;7.458;2023-04-23T06:58:11;16.70;99.90
11704;DHT22;5908;51.354;7.458;2023-04-23T07:11:01;17.30;99.90
11704;DHT22;5908;51.354;7.458;2023-04-23T07:13:28;17.40;99.90
11704;DHT22;5908;51.354;7.458;2023-04-23T07:15:55;17.60;99.90
11704;DHT22;5908;51.354;7.458;2023-04-23T07:18:22;17.80;99.60
11704;DHT22;5908;51.354;7.458;2023-04-23T07:20:48;17.70;99.40
11704;DHT22;5908;51.354;7.458;2023-04-23T07:23:15;17.60;99.20
11704;DHT22;5908;51.354;7.458;2023-04-23T07:25:42;17.60;99.30
11704;DHT22;5908;51.354;7.458;2023-04-23T07:28:10;17.70;99.00
11704;DHT22;5908;51.354;7.458;2023-04-23T07:30:37;17.80;98.70
11704;DHT22;5908;51.354;7.458;2023-04-23T07:33:03;17.80;98.30
11704;DHT22;5908;51.354;7.458;2023-04-23T07:35:30;17.90;98.10
11704;DHT22;5908;51.354;7.458;2023-04-23T07:37:57;18.00;97.60
11704;DHT22;5908;51.354;7.458;2023-04-23T07:40:24;18.00;97.70
11704;DHT22;5908;51.354;7.458;2023-04-23T07:42:51;18.10;97.30
11704;DHT22;5908;51.354;7.458;2023-04-23T07:45:19;18.10;97.30
11704;DHT22;5908;51.354;7.458;2023-04-23T07:47:48;18.00;97.10
11704;DHT22;5908;51.354;7.458;2023-04-23T07:50:15;17.90;96.60
11704;DHT22;5908;51.354;7.458;2023-04-23T07:52:42;17.50;97.70
11704;DHT22;5908;51.354;7.458;2023-04-23T07:55:09;17.20;98.70
11704;DHT22;5908;51.354;7.458;2023-04-23T07:57:35;17.10;98.80
11704;DHT22;5908;51.354;7.458;2023-04-23T08:00:03;16.90;98.80
11704;DHT22;5908;51.354;7.458;2023-04-23T08:02:31;16.80;99.40
11704;DHT22;5908;51.354;7.458;2023-04-23T08:04:58;16.70;99.70
11704;DHT22;5908;51.354;7.458;2023-04-23T08:07:25;16.60;99.90
11704;DHT22;5908;51.354;7.458;2023-04-23T08:09:51;16.70;99.90
11704;DHT22;5908;51.354;7.458;2023-04-23T08:12:18;16.80;99.90
11704;DHT22;5908;51.354;7.458;2023-04-23T08:14:45;16.80;99.90
11704;DHT22;5908;51.354;7.458;2023-04-23T08:17:12;16.80;99.40
11704;DHT22;5908;51.354;7.458;2023-04-23T08:19:40;16.70;99.50
11704;DHT22;5908;51.354;7.458;2023-04-23T08:22:07;16.70;99.40
11704;DHT22;5908;51.354;7.458;2023-04-23T08:24:35;16.90;99.90
11704;DHT22;5908;51.354;7.458;2023-04-23T08:27:01;17.10;99.90
11704;DHT22;5908;51.354;7.458;2023-04-23T08:29:28;17.30;99.30
11704;DHT22;5908;51.354;7.458;2023-04-23T08:31:55;17.40;98.60
11704;DHT22;5908;51.354;7.458;2023-04-23T08:34:22;17.40;98.10
11704;DHT22;5908;51.354;7.458;2023-04-23T08:36:50;17.30;97.80
11704;DHT22;5908;51.354;7.458;2023-04-23T08:39:18;17.20;97.70
11704;DHT22;5908;51.354;7.458;2023-04-23T08:41:51;17.40;97.00
11704;DHT22;5908;51.354;7.458;2023-04-23T08:44:22;17.50;97.20
11704;DHT22;5908;51.354;7.458;2023-04-23T08:46:49;17.60;96.10
11704;DHT22;5908;51.354;7.458;2023-04-23T08:49:18;17.50;96.10
11704;DHT22;5908;51.354;7.458;2023-04-23T08:51:48;17.40;96.40
11704;DHT22;5908;51.354;7.458;2023-04-23T08:54:20;17.20;96.60
11704;DHT22;5908;51.354;7.458;2023-04-23T08:56:48;17.10;96.70
11704;DHT22;5908;51.354;7.458;2023-04-23T08:59:17;17.30;96.50
11704;DHT22;5908;51.354;7.458;2023-04-23T09:01:45;17.60;96.40
11704;DHT22;5908;51.354;7.458;2023-04-23T09:04:12;18.10;95.50
11704;DHT22;5908;51.354;7.458;2023-04-23T09:06:41;18.80;94.20
11704;DHT22;5908;51.354;7.458;2023-04-23T09:09:08;18.90;93.30
11704;DHT22;5908;51.354;7.458;2023-04-23T09:11:36;18.80;93.20
11704;DHT22;5908;51.354;7.458;2023-04-23T09:14:03;18.40;93.20
11704;DHT22;5908;51.354;7.458;2023-04-23T09:16:30;18.10;94.20
11704;DHT22;5908;51.354;7.458;2023-04-23T09:18:58;18.10;94.70
11704;DHT22;5908;51.354;7.458;2023-04-23T09:21:25;18.50;94.40
11704;DHT22;5908;51.354;7.458;2023-04-23T09:23:52;18.70;93.50
11704;DHT22;5908;51.354;7.458;2023-04-23T09:26:19;18.90;92.90
11704;DHT22;5908;51.354;7.458;2023-04-23T09:28:49;19.30;92.50
11704;DHT22;5908;51.354;7.458;2023-04-23T09:31:19;19.60;91.30
11704;DHT22;5908;51.354;7.458;2023-04-23T09:33:50;19.60;91.60
11704;DHT22;5908;51.354;7.458;2023-04-23T09:36:20;19.70;91.40
11704;DHT22;5908;51.354;7.458;2023-04-23T09:38:47;19.80;91.30
11704;DHT22;5908;51.354;7.458;2023-04-23T09:41:21;19.80;91.10
11704;DHT22;5908;51.354;7.458;2023-04-23T09:43:52;20.20;90.70
11704;DHT22;5908;51.354;7.458;2023-04-23T09:46:30;20.30;89.00
11704;DHT22;5908;51.354;7.458;2023-04-23T09:48:57;20.30;89.60
11704;DHT22;5908;51.354;7.458;2023-04-23T09:51:24;20.50;89.80
11704;DHT22;5908;51.354;7.458;2023-04-23T09:53:52;21.00;88.50
11704;DHT22;5908;51.354;7.458;2023-04-23T09:56:19;21.10;86.00
11704;DHT22;5908;51.354;7.458;2023-04-23T09:58:46;21.40;85.90
11704;DHT22;5908;51.354;7.458;2023-04-23T10:01:14;21.80;84.00
11704;DHT22;5908;51.354;7.458;2023-04-23T10:03:41;22.00;83.60
11704;DHT22;5908;51.354;7.458;2023-04-23T10:06:12;22.30;81.90
11704;DHT22;5908;51.354;7.458;2023-04-23T10:08:40;22.30;81.30
11704;DHT22;5908;51.354;7.458;2023-04-23T10:11:07;22.20;80.50
11704;DHT22;5908;51.354;7.458;2023-04-23T10:13:34;21.90;81.20
11704;DHT22;5908;51.354;7.458;2023-04-23T10:16:03;21.50;79.90
11704;DHT22;5908;51.354;7.458;2023-04-23T10:18:32;21.20;80.90
11704;DHT22;5908;51.354;7.458;2023-04-23T10:21:00;21.10;81.60
11704;DHT22;5908;51.354;7.458;2023-04-23T10:23:28;21.00;82.20
11704;DHT22;5908;51.354;7.458;2023-04-23T10:25:58;20.80;83.10
11704;DHT22;5908;51.354;7.458;2023-04-23T10:28:29;20.70;83.50
11704;DHT22;5908;51.354;7.458;2023-04-23T10:30:57;20.60;82.70
11704;DHT22;5908;51.354;7.458;2023-04-23T10:33:25;20.70;81.80
11704;DHT22;5908;51.354;7.458;2023-04-23T10:35:55;21.10;80.80
11704;DHT22;5908;51.354;7.458;2023-04-23T10:38:22;21.40;79.00
11704;DHT22;5908;51.354;7.458;2023-04-23T10:40:54;21.50;79.00
11704;DHT22;5908;51.354;7.458;2023-04-23T10:43:22;21.60;77.90
11704;DHT22;5908;51.354;7.458;2023-04-23T10:45:49;21.80;76.80
11704;DHT22;5908;51.354;7.458;2023-04-23T10:48:16;21.90;76.10
11704;DHT22;5908;51.354;7.458;2023-04-23T10:50:42;22.20;74.80
11704;DHT22;5908;51.354;7.458;2023-04-23T10:53:19;22.20;74.60
11704;DHT22;5908;51.354;7.458;2023-04-23T10:55:46;22.10;74.50
11704;DHT22;5908;51.354;7.458;2023-04-23T10:58:12;22.00;75.00
11704;DHT22;5908;51.354;7.458;2023-04-23T11:00:44;22.30;75.30
11704;DHT22;5908;51.354;7.458;2023-04-23T11:03:34;22.40;75.00
11704;DHT22;5908;51.354;7.458;2023-04-23T11:06:04;22.30;74.70
11704;DHT22;5908;51.354;7.458;2023-04-23T11:08:34;22.30;75.00
11704;DHT22;5908;51.354;7.458;2023-04-23T11:11:05;22.10;74.80
11704;DHT22;5908;51.354;7.458;2023-04-23T11:13:32;22.20;74.50
11704;DHT22;5908;51.354;7.458;2023-04-23T11:16:15;22.30;73.70
11704;DHT22;5908;51.354;7.458;2023-04-23T11:19:10;22.30;72.90
11704;DHT22;5908;51.354;7.458;2023-04-23T11:21:57;22.50;73.10
11704;DHT22;5908;51.354;7.458;2023-04-23T11:24:26;23.10;73.10
11704;DHT22;5908;51.354;7.458;2023-04-23T11:26:53;23.30;72.30
11704;DHT22;5908;51.354;7.458;2023-04-23T11:29:21;23.20;70.10
11704;DHT22;5908;51.354;7.458;2023-04-23T11:31:49;23.10;71.00
11704;DHT22;5908;51.354;7.458;2023-04-23T11:34:16;23.30;70.40
11704;DHT22;5908;51.354;7.458;2023-04-23T11:36:43;23.60;69.80
11704;DHT22;5908;51.354;7.458;2023-04-23T11:39:10;23.60;68.40
11704;DHT22;5908;51.354;7.458;2023-04-23T11:41:39;23.60;67.80
11704;DHT22;5908;51.354;7.458;2023-04-23T11:44:07;23.50;67.90
11704;DHT22;5908;51.354;7.458;2023-04-23T11:46:34;23.60;68.10
11704;DHT22;5908;51.354;7.458;2023-04-23T11:49:01;23.60;67.30
11704;DHT22;5908;51.354;7.458;2023-04-23T11:51:28;23.70;67.50
11704;DHT22;5908;51.354;7.458;2023-04-23T11:54:01;23.90;66.70
11704;DHT22;5908;51.354;7.458;2023-04-23T11:56:29;24.10;66.80
11704;DHT22;5908;51.354;7.458;2023-04-23T11:59:00;24.20;66.90
11704;DHT22;5908;51.354;7.458;2023-04-23T12:01:39;24.00;64.80
11704;DHT22;5908;51.354;7.458;2023-04-23T12:04:14;23.70;65.60
11704;DHT22;5908;51.354;7.458;2023-04-23T12:06:42;23.80;65.80
11704;DHT22;5908;51.354;7.458;2023-04-23T12:09:10;24.00;65.40
11704;DHT22;5908;51.354;7.458;2023-04-23T12:11:38;23.90;64.20
11704;DHT22;5908;51.354;7.458;2023-04-23T12:14:07;23.90;65.40
11704;DHT22;5908;51.354;7.458;2023-04-23T12:16:38;23.70;64.60
11704;DHT22;5908;51.354;7.458;2023-04-23T12:19:08;23.70;62.70
11704;DHT22;5908;51.354;7.458;2023-04-23T12:21:47;23.70;63.40
11704;DHT22;5908;51.354;7.458;2023-04-23T12:24:14;23.90;66.20
11704;DHT22;5908;51.354;7.458;2023-04-23T12:26:41;24.30;65.70
11704;DHT22;5908;51.354;7.458;2023-04-23T12:29:11;24.50;64.10
11704;DHT22;5908;51.354;7.458;2023-04-23T12:31:38;24.50;61.50
11704;DHT22;5908;51.354;7.458;2023-04-23T12:34:06;24.50;62.10
11704;DHT22;5908;51.354;7.458;2023-04-23T12:36:34;24.60;61.50
11704;DHT22;5908;51.354;7.458;2023-04-23T12:39:22;24.50;60.60
11704;DHT22;5908;51.354;7.458;2023-04-23T12:41:50;24.30;61.10
11704;DHT22;5908;51.354;7.458;2023-04-23T12:44:19;24.30;61.80
11704;DHT22;5908;51.354;7.458;2023-04-23T12:46:49;24.20;61.70
11704;DHT22;5908;51.354;7.458;2023-04-23T12:49:16;24.00;62.30
11704;DHT22;5908;51.354;7.458;2023-04-23T12:51:43;23.80;64.30
11704;DHT22;5908;51.354;7.458;2023-04-23T12:54:10;23.70;64.30
11704;DHT22;5908;51.354;7.458;2023-04-23T12:56:37;23.60;64.20
11704;DHT22;5908;51.354;7.458;2023-04-23T12:59:04;23.30;64.00
11704;DHT22;5908;51.354;7.458;2023-04-23T13:01:33;23.00;63.10
11704;DHT22;5908;51.354;7.458;2023-04-23T13:03:59;22.90;64.70
11704;DHT22;5908;51.354;7.458;2023-04-23T13:06:26;22.80;64.80
11704;DHT22;5908;51.354;7.458;2023-04-23T13:08:53;23.00;64.80
11704;DHT22;5908;51.354;7.458;2023-04-23T13:11:21;23.50;64.50
11704;DHT22;5908;51.354;7.458;2023-04-23T13:13:48;23.40;63.10
11704;DHT22;5908;51.354;7.458;2023-04-23T13:16:16;23.30;63.70
11704;DHT22;5908;51.354;7.458;2023-04-23T13:18:44;23.30;64.20
11704;DHT22;5908;51.354;7.458;2023-04-23T13:21:11;23.70;62.80
11704;DHT22;5908;51.354;7.458;2023-04-23T13:23:38;23.80;62.90
11704;DHT22;5908;51.354;7.458;2023-04-23T13:26:04;23.60;61.60
11704;DHT22;5908;51.354;7.458;2023-04-23T13:28:33;23.30;62.90
11704;DHT22;5908;51.354;7.458;2023-04-23T13:31:00;23.00;61.60
11704;DHT22;5908;51.354;7.458;2023-04-23T13:33:26;22.70;61.60
11704;DHT22;5908;51.354;7.458;2023-04-23T13:35:55;23.00;62.90
11704;DHT22;5908;51.354;7.458;2023-04-23T13:38:23;23.30;62.40
11704;DHT22;5908;51.354;7.458;2023-04-23T13:40:50;23.50;60.90
11704;DHT22;5908;51.354;7.458;2023-04-23T13:43:17;23.30;60.70
11704;DHT22;5908;51.354;7.458;2023-04-23T13:45:44;22.90;60.80
11704;DHT22;5908;51.354;7.458;2023-04-23T13:48:11;22.70;61.40
11704;DHT22;5908;51.354;7.458;2023-04-23T13:50:39;22.70;61.50
11704;DHT22;5908;51.354;7.458;2023-04-23T13:53:07;22.80;61.00
11704;DHT22;5908;51.354;7.458;2023-04-23T13:55:35;22.80;61.00
11704;DHT22;5908;51.354;7.458;2023-04-23T13:58:02;22.90;60.40
11704;DHT22;5908;51.354;7.458;2023-04-23T14:00:29;22.90;59.20
11704;DHT22;5908;51.354;7.458;2023-04-23T14:02:55;22.90;58.90
11704;DHT22;5908;51.354;7.458;2023-04-23T14:05:22;23.00;59.60
11704;DHT22;5908;51.354;7.458;2023-04-23T14:07:49;23.00;59.90
11704;DHT22;5908;51.354;7.458;2023-04-23T14:10:17;23.20;60.30
11704;DHT22;5908;51.354;7.458;2023-04-23T14:12:44;23.20;59.60
11704;DHT22;5908;51.354;7.458;2023-04-23T14:15:11;23.30;60.00
11704;DHT22;5908;51.354;7.458;2023-04-23T14:17:39;23.40;59.80
11704;DHT22;5908;51.354;7.458;2023-04-23T14:20:07;23.30;59.90
11704;DHT22;5908;51.354;7.458;2023-04-23T14:22:34;23.20;59.90
11704;DHT22;5908;51.354;7.458;2023-04-23T14:25:02;23.20;60.10
11704;DHT22;5908;51.354;7.458;2023-04-23T14:27:38;23.00;59.30
11704;DHT22;5908;51.354;7.458;2023-04-23T14:30:13;23.00;59.80
11704;DHT22;5908;51.354;7.458;2023-04-23T14:32:40;23.00;59.80
11704;DHT22;5908;51.354;7.458;2023-04-23T14:35:08;23.00;60.10
11704;DHT22;5908;51.354;7.458;2023-04-23T14:37:34;23.20;60.30
11704;DHT22;5908;51.354;7.458;2023-04-23T14:40:01;23.40;60.10
11704;DHT22;5908;51.354;7.458;2023-04-23T14:42:28;23.70;59.90
11704;DHT22;5908;51.354;7.458;2023-04-23T14:44:58;23.90;59.80
11704;DHT22;5908;51.354;7.458;2023-04-23T14:47:25;24.00;58.60
11704;DHT22;5908;51.354;7.458;2023-04-23T14:49:52;24.00;58.70
11704;DHT22;5908;51.354;7.458;2023-04-23T14:52:18;23.90;58.90
11704;DHT22;5908;51.354;7.458;2023-04-23T14:54:45;23.80;58.70
11704;DHT22;5908;51.354;7.458;2023-04-23T14:57:12;23.60;59.00
11704;DHT22;5908;51.354;7.458;2023-04-23T14:59:39;23.50;59.80
11704;DHT22;5908;51.354;7.458;2023-04-23T15:02:07;23.40;59.10
11704;DHT22;5908;51.354;7.458;2023-04-23T15:04:36;23.20;59.20
11704;DHT22;5908;51.354;7.458;2023-04-23T15:07:03;23.10;59.60
11704;DHT22;5908;51.354;7.458;2023-04-23T15:09:29;23.00;59.80
11704;DHT22;5908;51.354;7.458;2023-04-23T15:11:56;22.90;61.10
11704;DHT22;5908;51.354;7.458;2023-04-23T15:14:25;22.70;61.30
11704;DHT22;5908;51.354;7.458;2023-04-23T15:16:56;22.30;62.40
11704;DHT22;5908;51.354;7.458;2023-04-23T15:19:24;21.90;64.60
11704;DHT22;5908;51.354;7.458;2023-04-23T15:21:50;21.50;65.60
11704;DHT22;5908;51.354;7.458;2023-04-23T15:24:17;21.30;66.50
11704;DHT22;5908;51.354;7.458;2023-04-23T15:26:44;21.30;66.80
11704;DHT22;5908;51.354;7.458;2023-04-23T15:29:11;21.30;67.30
11704;DHT22;5908;51.354;7.458;2023-04-23T15:31:38;21.30;67.30
11704;DHT22;5908;51.354;7.458;2023-04-23T15:34:05;21.20;67.60
11704;DHT22;5908;51.354;7.458;2023-04-23T15:36:34;21.30;67.80
11704;DHT22;5908;51.354;7.458;2023-04-23T15:39:01;21.10;68.30
11704;DHT22;5908;51.354;7.458;2023-04-23T15:41:28;20.90;69.20
11704;DHT22;5908;51.354;7.458;2023-04-23T15:43:55;20.70;71.20
11704;DHT22;5908;51.354;7.458;2023-04-23T15:46:22;20.30;76.70
11704;DHT22;5908;51.354;7.458;2023-04-23T15:48:48;19.90;74.20
11704;DHT22;5908;51.354;7.458;2023-04-23T15:51:15;19.50;73.70
11704;DHT22;5908;51.354;7.458;2023-04-23T15:53:43;19.50;73.80
11704;DHT22;5908;51.354;7.458;2023-04-23T15:56:10;19.50;73.10
11704;DHT22;5908;51.354;7.458;2023-04-23T15:58:36;19.60;71.70
11704;DHT22;5908;51.354;7.458;2023-04-23T16:01:03;19.60;69.80